Perrysville, OH (44864)

5:17 PM EST on January 22, 2017 (GMT -0500)
KOHPERRY11 | | Change Station
Active Advisory: Small Craft Advisory

Elev 1001 ft 40.66 °N, 82.31 °W | Updated 2 minutes ago

Partly Cloudy
Partly Cloudy
60.0 °F
Feels Like 60.0 °F
N
2.0
Wind Variable Wind from East
Gusts 6.0 mph

Today
High -- | Low -- °F
--% Chance of Precip.
Yesterday
High -- | Low -- °F
Precip. -- in
Pressure 29.55 in
Visibility 10.0 miles
Clouds Overcast 9500 ft
Dew Point 51 °F
Humidity 72%
Rainfall 0.00 in
Snow Depth Not available.
7:47 AM 5:35 PM
Waning Crescent, 23% visible
METAR KMFD 222152Z 06006KT 10SM OVC095 14/09 A2954 RMK AO2 SLP004 T01440094
Pressure 29.55 in
Visibility 10.0 miles
Clouds Overcast 9500 ft
Dew Point 51 °F
Humidity 72%
Rainfall 0.00 in
Snow Depth Not available.
7:47 AM 5:35 PM
Waning Crescent, 23% visible
METAR KMFD 222152Z 06006KT 10SM OVC095 14/09 A2954 RMK AO2 SLP004 T01440094

Get Your Daily Forecast Email!

Thanks for signing up!

Be on the lookout for a verification email in your inbox.

You'll start receiving the daily forecast at 8 AM.

×

10-Day Weather Forecast

Almanac

Astronomy

Jan. 22, 2017 Rise Set
Actual Time
Civil Twilight
Nautical Twilight
Astronomical Twilight
Moon
Length of Visible Light
Length of Day
Tomorrow will be .
, % of the Moon is Illuminated

Today's Extremes

State Highs State Lows

Community

WunderPhotos

Upload Photos

1,962,540 photos uploaded!

WunderBlog® & News

Nearby

Air Quality

  Air Quality AQ Index Pollutant
Not available.

Snow Depth

Station Depth Elevation

Earthquake Activity

City Distance Mag. Time & Date
Minimum magnitude displayed is 2.5.

Coastal Water Temperatures

Place Temperature

Stations

Nearby Weather Stations

Station Location Temp. Windchill Dew Point Humidity Wind Precip. Elev Updated Type
                   

Watches & Warnings

Small Craft Advisory
Issued: 3:43 PM EST Jan. 22, 2017 – National Weather Service

... Small Craft Advisory in effect from 4 am Monday to 4 am EST
Tuesday...

The National Weather Service in Cleveland has issued a Small
Craft Advisory... which is in effect from 4 am Monday to 4 am EST
Tuesday.

* Winds... northeast 10 to 20 knots with gusts up to 25 knots.

* Waves... 3 to 5 feet.

Precautionary/preparedness actions...

A Small Craft Advisory is issued when waves of 4 feet or more are
expected or wind speeds reach 21 to 33 knots which may produce
hazardous conditions to small craft. Inexperienced mariners...
especially those operating smaller vessels... should stay in port
during these conditions.